Lakeland, Minnesota
Current Conditions -  °F | °C
As of 8:31 AM on Saturday 25 Oct 2014 (Local Time) from K21D Reporting Station
Clear Clear  
Wind Chill: 52°   Ceiling: Unl
Heat Index: 52°   Visibility: 10mi
Dew Point: 36°   Wind: 10mph
Humidity: 54%   Direction: 310°NW
Pressure: 30.02"   Gusts: NA
Location:  44.96°N, 92.77°W
Report Text: K21D 251331Z AUTO 31009KT 10SM CLR 11/02 A3002 RMK AO2
Loading
Personal Weather Stations






























Interactive Weather Map
Tropical Storm Tracking
New forecast layout! Learn more

10-Day Weather Forecast

Advertisements
Track Severe Weather on mobile